createdAt,value
2019-03-17T00:02:18.090Z,11.10
2019-03-17T00:04:49.692Z,11.00
2019-03-17T00:07:20.206Z,11.10
2019-03-17T00:09:49.738Z,11.10
2019-03-17T00:12:19.168Z,11.10
2019-03-17T00:14:49.461Z,11.10
2019-03-17T00:17:19.355Z,11.10
2019-03-17T00:19:51.121Z,11.10
2019-03-17T00:22:23.363Z,11.10
2019-03-17T00:25:09.127Z,11.20
2019-03-17T00:27:43.568Z,11.20
2019-03-17T00:30:15.060Z,11.20
2019-03-17T00:32:44.692Z,11.20
2019-03-17T00:35:14.179Z,11.20
2019-03-17T00:37:43.769Z,11.10
2019-03-17T00:40:13.472Z,11.00
2019-03-17T00:42:46.346Z,11.00
2019-03-17T00:45:15.882Z,11.00
2019-03-17T00:47:45.619Z,10.80
2019-03-17T00:50:15.200Z,10.60
2019-03-17T00:52:44.646Z,10.40
2019-03-17T00:55:15.333Z,10.20
2019-03-17T00:57:47.704Z,10.10
2019-03-17T01:00:18.005Z,10.00
2019-03-17T01:02:49.025Z,9.90
2019-03-17T01:05:21.242Z,9.80
2019-03-17T01:07:52.302Z,9.80
2019-03-17T01:10:22.067Z,9.80
2019-03-17T01:13:09.864Z,9.70
2019-03-17T01:15:39.414Z,9.60
2019-03-17T01:18:09.185Z,9.60
2019-03-17T01:20:38.773Z,9.60
2019-03-17T01:23:08.383Z,9.60
2019-03-17T01:25:37.964Z,9.50
2019-03-17T01:28:07.888Z,9.40
2019-03-17T01:30:37.812Z,9.40
2019-03-17T01:33:08.249Z,9.40
2019-03-17T01:35:37.825Z,9.30
2019-03-17T01:38:07.397Z,9.30
2019-03-17T01:40:36.939Z,9.30
2019-03-17T01:43:06.925Z,9.30
2019-03-17T01:45:37.634Z,9.30
2019-03-17T01:48:07.223Z,9.30
2019-03-17T01:50:36.810Z,9.20
2019-03-17T01:53:07.405Z,9.20
2019-03-17T01:55:37.912Z,9.20
2019-03-17T01:58:08.823Z,9.20
2019-03-17T02:00:38.421Z,9.10
2019-03-17T02:03:28.968Z,9.20
2019-03-17T02:06:01.618Z,9.20
2019-03-17T02:08:35.556Z,9.20
2019-03-17T02:11:07.016Z,9.10
2019-03-17T02:13:37.999Z,9.10
2019-03-17T02:16:07.654Z,9.10
2019-03-17T02:18:37.297Z,9.00
2019-03-17T02:21:07.073Z,9.10
2019-03-17T02:23:36.787Z,9.10
2019-03-17T02:26:06.432Z,9.00
2019-03-17T02:28:35.973Z,9.00
2019-03-17T02:31:06.890Z,9.00
2019-03-17T02:33:36.481Z,9.00
2019-03-17T02:36:06.547Z,9.00
2019-03-17T02:38:36.099Z,9.10
2019-03-17T02:41:05.729Z,9.00
2019-03-17T02:43:36.411Z,9.00
2019-03-17T02:46:06.106Z,9.00
2019-03-17T02:48:36.193Z,9.00
2019-03-17T02:51:07.322Z,9.00
2019-03-17T02:53:37.447Z,9.00
2019-03-17T02:56:07.050Z,9.00
2019-03-17T02:58:36.862Z,9.00
2019-03-17T03:01:06.480Z,9.00
2019-03-17T03:03:37.558Z,8.90
2019-03-17T03:06:07.406Z,8.90
2019-03-17T03:08:37.066Z,8.90
2019-03-17T03:11:06.922Z,8.90
2019-03-17T03:13:36.532Z,8.90
2019-03-17T03:16:06.542Z,9.00
2019-03-17T03:18:36.298Z,9.00
2019-03-17T03:21:06.051Z,9.00
2019-03-17T03:23:35.729Z,8.90
2019-03-17T03:26:06.645Z,8.70
2019-03-17T03:28:36.589Z,8.50
2019-03-17T03:31:06.971Z,8.10
2019-03-17T03:33:38.032Z,8.20
2019-03-17T03:36:11.363Z,8.20
2019-03-17T03:38:40.145Z,8.20
2019-03-17T03:41:09.715Z,8.10
2019-03-17T03:43:40.650Z,8.20
2019-03-17T03:46:10.895Z,8.20
2019-03-17T03:48:42.313Z,8.10
2019-03-17T03:51:13.341Z,8.10
2019-03-17T03:53:43.423Z,8.10
2019-03-17T03:56:14.634Z,8.10
2019-03-17T03:58:46.534Z,8.00
2019-03-17T04:01:24.659Z,7.90
2019-03-17T04:04:00.227Z,7.80
2019-03-17T04:06:29.945Z,7.70
2019-03-17T04:09:19.794Z,7.80
2019-03-17T04:11:50.464Z,7.90
2019-03-17T04:14:20.932Z,7.90
2019-03-17T04:17:03.703Z,7.80
2019-03-17T04:19:38.150Z,7.60
2019-03-17T04:22:07.706Z,7.50
2019-03-17T04:24:39.235Z,7.50
2019-03-17T04:27:15.149Z,7.50
2019-03-17T04:29:44.702Z,7.60
2019-03-17T04:32:15.749Z,7.60
2019-03-17T04:34:45.237Z,7.70
2019-03-17T04:37:16.228Z,7.70
2019-03-17T04:39:45.734Z,7.80
2019-03-17T04:42:16.351Z,7.70
2019-03-17T04:44:45.819Z,7.80
2019-03-17T04:47:16.321Z,7.90
2019-03-17T04:49:45.781Z,7.90
2019-03-17T04:52:16.668Z,7.80
2019-03-17T04:54:46.100Z,7.90
2019-03-17T04:57:15.594Z,7.80
2019-03-17T04:59:46.349Z,7.90
2019-03-17T05:02:15.855Z,7.90
2019-03-17T05:04:47.098Z,7.80
2019-03-17T05:07:17.835Z,7.90
2019-03-17T05:09:47.717Z,7.80
2019-03-17T05:12:18.616Z,7.90
2019-03-17T05:14:48.060Z,7.80
2019-03-17T05:17:19.514Z,7.80
2019-03-17T05:19:49.909Z,7.60
2019-03-17T05:22:20.221Z,7.60
2019-03-17T05:24:49.794Z,7.50
2019-03-17T05:27:19.571Z,7.30
2019-03-17T05:29:49.177Z,7.30
2019-03-17T05:32:20.131Z,7.40
2019-03-17T05:34:51.396Z,7.30
2019-03-17T05:37:31.552Z,7.40
2019-03-17T05:40:01.101Z,7.40
2019-03-17T05:42:31.606Z,7.40
2019-03-17T05:45:01.261Z,7.40
2019-03-17T05:47:30.867Z,7.40
2019-03-17T05:50:06.873Z,7.30
2019-03-17T05:52:38.026Z,7.30
2019-03-17T05:55:08.546Z,7.20
2019-03-17T05:57:38.219Z,7.20
2019-03-17T06:00:09.338Z,7.10
2019-03-17T06:02:38.760Z,7.20
2019-03-17T06:05:09.341Z,7.20
2019-03-17T06:07:38.840Z,7.20
2019-03-17T06:10:08.402Z,7.20
2019-03-17T06:12:38.134Z,7.20
2019-03-17T06:15:09.583Z,7.20
2019-03-17T06:17:40.255Z,7.20
2019-03-17T06:20:10.709Z,7.30
2019-03-17T06:22:40.224Z,7.40
2019-03-17T06:25:09.894Z,7.60
2019-03-17T06:27:40.700Z,7.80
2019-03-17T06:30:10.459Z,7.90
2019-03-17T06:32:39.926Z,8.00
2019-03-17T06:35:09.511Z,8.20
2019-03-17T06:37:39.122Z,8.40
2019-03-17T06:40:09.236Z,8.40
2019-03-17T06:42:38.740Z,8.30
2019-03-17T06:45:09.852Z,8.20
2019-03-17T06:47:39.465Z,8.00
2019-03-17T06:50:10.480Z,7.70
2019-03-17T06:52:40.701Z,7.50
2019-03-17T06:55:10.975Z,7.40
2019-03-17T06:57:40.639Z,7.50
2019-03-17T07:00:11.091Z,7.50
2019-03-17T07:02:40.620Z,7.60
2019-03-17T07:05:13.145Z,7.60
2019-03-17T07:07:44.964Z,7.50
2019-03-17T07:10:15.642Z,7.40
2019-03-17T07:12:45.278Z,7.30
2019-03-17T07:15:14.892Z,7.20
2019-03-17T07:17:44.371Z,7.00
2019-03-17T07:20:15.244Z,7.00
2019-03-17T07:22:44.803Z,7.10
2019-03-17T07:25:14.351Z,7.30
2019-03-17T07:27:46.162Z,7.50
2019-03-17T07:30:17.504Z,7.50
2019-03-17T07:32:47.179Z,7.50
2019-03-17T07:35:17.227Z,7.60
2019-03-17T07:37:56.806Z,7.60
2019-03-17T07:40:18.920Z,7.70
2019-03-17T07:42:48.449Z,7.70
2019-03-17T07:45:17.988Z,7.70
2019-03-17T07:48:02.643Z,7.70
2019-03-17T07:51:31.429Z,7.60
2019-03-17T07:54:21.146Z,7.50
2019-03-17T07:57:04.458Z,7.50
2019-03-17T08:05:16.067Z,8.30
2019-03-17T08:07:48.979Z,8.40
2019-03-17T08:11:03.898Z,8.50
2019-03-17T08:21:06.023Z,8.60
2019-03-17T08:23:46.507Z,8.30
2019-03-17T08:26:32.089Z,8.90
2019-03-17T08:29:27.968Z,10.10
2019-03-17T08:32:15.659Z,10.80
2019-03-17T08:34:48.558Z,11.50
2019-03-17T08:37:23.152Z,10.50
2019-03-17T08:39:54.981Z,9.80
2019-03-17T08:42:32.358Z,9.20
2019-03-17T08:45:21.263Z,8.90
2019-03-17T08:47:58.750Z,9.60
2019-03-17T08:51:10.632Z,10.60
2019-03-17T08:54:12.673Z,11.20
2019-03-17T08:57:18.240Z,10.40
2019-03-17T08:59:58.222Z,9.90
2019-03-17T09:02:30.966Z,9.50
2019-03-17T09:05:21.712Z,9.30
2019-03-17T09:08:35.554Z,9.50
2019-03-17T09:11:28.113Z,9.30
2019-03-17T09:14:02.552Z,10.20
2019-03-17T09:16:52.421Z,10.80
2019-03-17T09:22:55.374Z,9.90
2019-03-17T09:25:29.835Z,10.00
2019-03-17T09:28:01.498Z,10.20
2019-03-17T09:30:33.381Z,10.30
2019-03-17T09:33:06.173Z,11.40
2019-03-17T09:35:35.672Z,12.70
2019-03-17T09:38:06.633Z,13.60
2019-03-17T09:40:37.101Z,13.10
2019-03-17T09:43:10.498Z,12.40
2019-03-17T09:45:49.356Z,13.10
2019-03-17T09:48:21.728Z,14.30
2019-03-17T09:50:58.639Z,13.40
2019-03-17T09:53:28.819Z,11.90
2019-03-17T09:55:58.781Z,11.10
2019-03-17T09:58:28.411Z,11.00
2019-03-17T10:01:01.304Z,11.50
2019-03-17T10:03:30.879Z,12.10
2019-03-17T10:06:02.049Z,12.60
2019-03-17T10:08:32.144Z,11.80
2019-03-17T10:11:02.882Z,10.90
2019-03-17T10:13:37.108Z,10.50
2019-03-17T10:16:07.049Z,10.90
2019-03-17T10:18:38.695Z,10.50
2019-03-17T10:21:09.529Z,11.40
2019-03-17T10:23:39.741Z,12.40
2019-03-17T10:26:09.434Z,12.70
2019-03-17T10:28:39.113Z,13.60
2019-03-17T10:31:08.657Z,12.70
2019-03-17T10:33:39.821Z,12.80
2019-03-17T10:36:10.609Z,14.30
2019-03-17T10:39:11.992Z,13.90
2019-03-17T10:41:41.662Z,14.00
2019-03-17T10:44:12.950Z,15.50
2019-03-17T10:46:49.174Z,13.90
2019-03-17T10:49:41.683Z,14.00
2019-03-17T10:52:11.485Z,15.70
2019-03-17T10:54:42.682Z,15.80
2019-03-17T10:57:16.060Z,16.00
2019-03-17T10:59:47.029Z,14.70
2019-03-17T11:02:16.862Z,13.90
2019-03-17T11:04:50.126Z,13.60
2019-03-17T11:07:21.668Z,14.20
2019-03-17T11:09:54.521Z,14.80
2019-03-17T11:12:25.639Z,16.10
2019-03-17T11:14:55.685Z,15.50
2019-03-17T11:17:25.366Z,13.70
2019-03-17T11:19:55.103Z,14.30
2019-03-17T11:22:25.647Z,13.80
2019-03-17T11:24:58.263Z,13.80
2019-03-17T11:27:28.185Z,13.80
2019-03-17T11:30:00.342Z,13.00
2019-03-17T11:32:29.917Z,14.10
2019-03-17T11:34:59.605Z,13.50
2019-03-17T11:37:32.387Z,13.50
2019-03-17T11:40:02.439Z,12.80
2019-03-17T11:42:40.091Z,12.30
2019-03-17T11:45:11.615Z,12.50
2019-03-17T11:47:41.230Z,12.50
2019-03-17T11:50:13.789Z,11.90
2019-03-17T11:52:43.818Z,13.10
2019-03-17T11:55:14.030Z,13.80
2019-03-17T11:57:43.972Z,13.00
2019-03-17T12:00:15.303Z,13.60
2019-03-17T12:02:47.670Z,14.40
2019-03-17T12:05:23.389Z,15.60
2019-03-17T12:07:53.236Z,16.50
2019-03-17T12:10:23.028Z,17.20
2019-03-17T12:12:53.285Z,18.60
2019-03-17T12:15:23.200Z,18.70
2019-03-17T12:17:53.892Z,16.80
2019-03-17T12:20:26.575Z,15.50
2019-03-17T12:22:56.865Z,16.30
2019-03-17T12:25:26.512Z,15.50
2019-03-17T12:27:56.662Z,15.30
2019-03-17T12:30:27.730Z,15.50
2019-03-17T12:33:00.695Z,18.10
2019-03-17T12:35:31.512Z,17.30
2019-03-17T12:38:01.457Z,16.00
2019-03-17T12:40:31.506Z,15.30
2019-03-17T12:43:01.229Z,14.60
2019-03-17T12:45:30.940Z,13.70
2019-03-17T12:48:00.469Z,13.30
2019-03-17T12:50:29.984Z,13.20
2019-03-17T12:52:59.734Z,12.70
2019-03-17T12:55:30.868Z,12.20
2019-03-17T12:58:00.539Z,11.80
2019-03-17T13:00:31.667Z,11.60
2019-03-17T13:03:02.794Z,12.40
2019-03-17T13:05:32.663Z,14.00
2019-03-17T13:08:02.390Z,16.50
2019-03-17T13:10:32.304Z,18.00
2019-03-17T13:13:03.085Z,18.30
2019-03-17T13:15:35.672Z,16.20
2019-03-17T13:18:05.644Z,17.40
2019-03-17T13:20:36.591Z,16.50
2019-03-17T13:23:06.505Z,17.80
2019-03-17T13:25:36.719Z,19.60
2019-03-17T13:28:09.532Z,19.20
2019-03-17T13:30:41.701Z,19.50
2019-03-17T13:33:14.173Z,19.50
2019-03-17T13:35:46.316Z,19.80
2019-03-17T13:38:16.436Z,20.10
2019-03-17T13:40:47.261Z,18.30
2019-03-17T13:43:20.156Z,17.50
2019-03-17T13:45:50.147Z,17.90
2019-03-17T13:48:21.959Z,17.00
2019-03-17T13:50:54.900Z,16.00
2019-03-17T13:53:25.677Z,15.70
2019-03-17T13:55:55.426Z,15.40
2019-03-17T13:58:25.228Z,14.00
2019-03-17T14:00:54.999Z,13.30
2019-03-17T14:03:26.831Z,12.90
2019-03-17T14:05:56.511Z,12.90
2019-03-17T14:08:28.119Z,12.80
2019-03-17T14:10:59.750Z,12.70
2019-03-17T14:13:33.920Z,12.50
2019-03-17T14:16:03.897Z,12.70
2019-03-17T14:18:33.761Z,12.70
2019-03-17T14:21:03.625Z,12.60
2019-03-17T14:23:37.190Z,12.40
2019-03-17T14:26:07.238Z,12.30
2019-03-17T14:28:37.648Z,12.70
2019-03-17T14:31:07.233Z,13.90
2019-03-17T14:33:36.837Z,14.70
2019-03-17T14:36:06.345Z,14.00
2019-03-17T14:38:35.840Z,14.00
2019-03-17T14:41:05.559Z,15.00
2019-03-17T14:43:35.135Z,14.70
2019-03-17T14:46:05.072Z,14.70
2019-03-17T14:48:35.192Z,14.80
2019-03-17T14:51:04.861Z,14.60
2019-03-17T14:53:34.628Z,14.10
2019-03-17T14:56:04.736Z,13.60
2019-03-17T14:58:34.434Z,13.90
2019-03-17T15:01:04.187Z,14.00
2019-03-17T15:03:34.195Z,13.00
2019-03-17T15:06:04.147Z,12.30
2019-03-17T15:08:33.887Z,11.90
2019-03-17T15:11:10.303Z,11.60
2019-03-17T15:13:41.248Z,11.60
2019-03-17T15:16:11.685Z,11.80
2019-03-17T15:18:41.977Z,11.50
2019-03-17T15:21:12.973Z,11.40
2019-03-17T15:23:44.327Z,11.50
2019-03-17T15:26:15.042Z,12.00
2019-03-17T15:28:44.635Z,12.40
2019-03-17T15:31:15.495Z,12.70
2019-03-17T15:33:45.568Z,12.30
2019-03-17T15:36:15.134Z,11.90
2019-03-17T15:38:45.004Z,11.70
2019-03-17T15:41:18.901Z,11.30
2019-03-17T15:43:46.571Z,11.10
2019-03-17T15:46:16.090Z,10.90
2019-03-17T15:48:45.948Z,11.00
2019-03-17T15:51:20.603Z,10.80
2019-03-17T15:53:47.072Z,10.60
2019-03-17T15:56:16.813Z,10.30
2019-03-17T15:58:47.084Z,10.60
2019-03-17T16:01:16.853Z,10.70
2019-03-17T16:03:46.615Z,10.50
2019-03-17T16:06:18.809Z,10.20
2019-03-17T16:08:47.575Z,9.90
2019-03-17T16:11:30.152Z,9.80
2019-03-17T16:13:48.916Z,9.60
2019-03-17T16:16:18.496Z,9.40
2019-03-17T16:18:48.187Z,9.30
2019-03-17T16:21:17.852Z,9.20
2019-03-17T16:23:47.540Z,9.10
2019-03-17T16:26:17.062Z,9.10
2019-03-17T16:28:47.120Z,9.20
2019-03-17T16:31:16.865Z,9.30
2019-03-17T16:33:46.591Z,9.40
2019-03-17T16:36:16.545Z,9.60
2019-03-17T16:38:46.106Z,9.80
2019-03-17T16:41:15.623Z,9.80
2019-03-17T16:43:45.208Z,9.60
2019-03-17T16:46:14.794Z,9.40
2019-03-17T16:48:44.610Z,9.20
2019-03-17T16:51:14.148Z,9.00
2019-03-17T16:53:43.690Z,8.90
2019-03-17T16:56:14.663Z,8.90
2019-03-17T16:58:44.193Z,8.90
2019-03-17T17:01:13.931Z,8.80
2019-03-17T17:03:43.820Z,8.80
2019-03-17T17:06:13.441Z,8.70
2019-03-17T17:08:43.312Z,8.70
2019-03-17T17:11:13.432Z,8.60
2019-03-17T17:13:43.520Z,8.60
2019-03-17T17:16:13.161Z,8.40
2019-03-17T17:18:43.052Z,8.30
2019-03-17T17:21:12.675Z,8.30
2019-03-17T17:23:42.828Z,8.30
2019-03-17T17:26:12.597Z,8.30
2019-03-17T17:28:42.887Z,8.20
2019-03-17T17:31:13.774Z,8.20
2019-03-17T17:33:43.513Z,8.10
2019-03-17T17:36:13.338Z,8.10
2019-03-17T17:38:43.441Z,8.10
2019-03-17T17:41:13.171Z,8.00
2019-03-17T17:43:43.061Z,8.00
2019-03-17T17:46:12.559Z,7.90
2019-03-17T17:48:42.249Z,7.90
2019-03-17T17:51:11.985Z,8.00
2019-03-17T17:53:41.899Z,8.00
2019-03-17T17:56:11.677Z,8.00
2019-03-17T17:58:41.682Z,7.90
2019-03-17T18:01:11.603Z,7.80
2019-03-17T18:03:59.279Z,7.90
2019-03-17T18:07:15.576Z,7.90
2019-03-17T18:09:45.810Z,7.90
2019-03-17T18:12:20.813Z,7.80
2019-03-17T18:14:48.802Z,7.80
2019-03-17T18:20:15.555Z,7.80
2019-03-17T18:22:45.443Z,7.80
2019-03-17T18:25:17.134Z,7.90
2019-03-17T18:27:48.387Z,7.90
2019-03-17T18:30:25.311Z,8.10
2019-03-17T18:32:56.964Z,8.20
2019-03-17T18:36:22.278Z,8.30
2019-03-17T18:38:55.802Z,8.30
2019-03-17T18:41:39.549Z,8.30
2019-03-17T18:44:17.985Z,8.10
2019-03-17T18:46:52.802Z,8.10
2019-03-17T18:49:23.576Z,8.00
2019-03-17T18:51:54.372Z,8.00
2019-03-17T18:54:23.138Z,7.90
2019-03-17T18:56:52.953Z,7.90
2019-03-17T18:59:23.803Z,7.90
2019-03-17T19:01:54.120Z,7.80
2019-03-17T19:04:24.018Z,7.80
2019-03-17T19:07:07.181Z,7.70
2019-03-17T19:09:38.093Z,7.70
2019-03-17T19:12:18.540Z,7.70
2019-03-17T19:14:52.297Z,7.70
2019-03-17T19:17:34.044Z,7.60
2019-03-17T19:20:05.255Z,7.60
2019-03-17T19:22:35.740Z,7.50
2019-03-17T19:25:06.054Z,7.50
2019-03-17T19:27:37.447Z,7.60
2019-03-17T19:33:13.634Z,7.50
2019-03-17T19:39:01.497Z,7.40
2019-03-17T19:41:38.396Z,7.40
2019-03-17T19:44:09.245Z,7.30
2019-03-17T19:46:41.262Z,7.30
2019-03-17T19:49:33.188Z,7.30
2019-03-17T19:52:04.852Z,7.30
2019-03-17T19:54:36.305Z,7.20
2019-03-17T19:57:05.984Z,7.20
2019-03-17T19:59:36.979Z,7.20
2019-03-17T20:02:17.964Z,7.20
2019-03-17T20:04:47.757Z,7.20
2019-03-17T20:07:18.318Z,7.30
2019-03-17T20:10:27.300Z,7.30
2019-03-17T20:13:11.616Z,7.20
2019-03-17T20:15:36.746Z,7.30
2019-03-17T20:18:06.560Z,7.30
2019-03-17T20:20:36.259Z,7.40
2019-03-17T20:23:05.920Z,7.30
2019-03-17T20:25:35.688Z,7.30
2019-03-17T20:28:05.369Z,7.30
2019-03-17T20:30:35.581Z,7.20
2019-03-17T20:33:05.470Z,7.20
2019-03-17T20:35:35.199Z,7.10
2019-03-17T20:38:09.058Z,7.10
2019-03-17T20:40:39.107Z,7.20
2019-03-17T20:43:23.774Z,7.20
2019-03-17T20:45:46.439Z,7.20
2019-03-17T20:48:17.017Z,7.20
2019-03-17T20:50:59.705Z,7.20
2019-03-17T20:53:31.841Z,7.20
2019-03-17T20:56:02.116Z,7.10
2019-03-17T20:58:32.288Z,7.00
2019-03-17T21:01:02.282Z,7.00
2019-03-17T21:03:33.317Z,7.00
2019-03-17T21:06:03.110Z,7.00
2019-03-17T21:08:33.166Z,7.10
2019-03-17T21:11:03.225Z,7.10
2019-03-17T21:13:46.255Z,7.10
2019-03-17T21:16:07.994Z,7.00
2019-03-17T21:18:42.234Z,7.00
2019-03-17T21:21:33.671Z,7.00
2019-03-17T21:24:03.812Z,6.90
2019-03-17T21:29:36.409Z,7.00
2019-03-17T21:32:06.496Z,7.00
2019-03-17T21:34:36.416Z,7.00
2019-03-17T21:37:06.412Z,7.00
2019-03-17T21:39:36.098Z,7.00
2019-03-17T21:42:05.904Z,7.10
2019-03-17T21:44:35.505Z,7.10
2019-03-17T21:47:05.379Z,7.10
2019-03-17T21:49:35.206Z,7.00
2019-03-17T21:52:05.837Z,7.00
2019-03-17T21:54:35.683Z,7.00
2019-03-17T21:57:05.426Z,7.00
2019-03-17T21:59:35.234Z,7.10
2019-03-17T22:02:12.747Z,7.10
2019-03-17T22:04:36.128Z,7.20
2019-03-17T22:07:05.916Z,7.30
2019-03-17T22:09:35.607Z,7.30
2019-03-17T22:12:06.557Z,7.40
2019-03-17T22:14:37.275Z,7.30
2019-03-17T22:17:08.955Z,7.30
2019-03-17T22:19:39.924Z,7.20
2019-03-17T22:22:11.005Z,7.30
2019-03-17T22:24:40.859Z,7.30
2019-03-17T22:27:12.517Z,7.30
2019-03-17T22:29:42.044Z,7.40
2019-03-17T22:32:13.778Z,7.40
2019-03-17T22:34:43.338Z,7.50
2019-03-17T22:37:16.349Z,7.50
2019-03-17T22:39:46.183Z,7.70
2019-03-17T22:42:15.874Z,7.70
2019-03-17T22:44:54.794Z,7.60
2019-03-17T22:47:38.032Z,7.60
2019-03-17T22:54:02.703Z,7.40
2019-03-17T22:56:33.892Z,7.40
2019-03-17T23:03:45.096Z,7.50
2019-03-17T23:06:15.767Z,7.50
2019-03-17T23:08:45.443Z,7.50
2019-03-17T23:11:16.329Z,7.50
2019-03-17T23:13:45.897Z,7.60
2019-03-17T23:16:16.889Z,7.60
2019-03-17T23:19:41.093Z,7.60
2019-03-17T23:25:35.618Z,7.80
2019-03-17T23:28:08.990Z,7.80
2019-03-17T23:33:36.325Z,7.90
2019-03-17T23:39:40.268Z,8.00
2019-03-17T23:42:09.983Z,8.00
2019-03-17T23:44:48.532Z,7.90
2019-03-17T23:47:11.054Z,8.00
2019-03-17T23:49:40.652Z,8.00
2019-03-17T23:52:16.383Z,8.10
2019-03-17T23:54:46.272Z,8.10
2019-03-17T23:57:15.967Z,8.20
2019-03-17T23:59:47.271Z,8.20
